<?xml version="1.0" encoding="UTF-8" standalone="no" ?>
<gpx xmlns="http://www.topografix.com/GPX/1/1" xmlns:xsi="http://www.w3.org/2001/XMLSchema-instance" xsi:schemaLocation="http://www.topografix.com/GPX/1/1 http://www.topografix.com/GPX/1/1/gpx.xsd" version="1.1" creator="VisuGPX - https://www.visugpx.com">
  <metadata>
    <name>20200924</name>
    <desc><![CDATA[20200924 - Montroty]]></desc>
  </metadata>
  <trk>
    <name><![CDATA[20200924]]></name>
    <trkseg>
      <trkpt lat="49.43843" lon="1.66639">
        <ele>195</ele>
        <time>2020-07-25T15:21:39 02:00</time>
      </trkpt>
      <trkpt lat="49.43887" lon="1.66608">
        <ele>196</ele>
        <time>2020-07-25T15:21:44 02:00</time>
      </trkpt>
      <trkpt lat="49.43877" lon="1.66557">
        <ele>196</ele>
        <time>2020-07-25T15:21:49 02:00</time>
      </trkpt>
      <trkpt lat="49.43913" lon="1.66532">
        <ele>196</ele>
        <time>2020-07-25T15:21:54 02:00</time>
      </trkpt>
      <trkpt lat="49.43883" lon="1.66444">
        <ele>194</ele>
        <time>2020-07-25T15:21:59 02:00</time>
      </trkpt>
      <trkpt lat="49.43832" lon="1.6638">
        <ele>191</ele>
        <time>2020-07-25T15:22:04 02:00</time>
      </trkpt>
      <trkpt lat="49.43719" lon="1.66371">
        <ele>188</ele>
        <time>2020-07-25T15:22:09 02:00</time>
      </trkpt>
      <trkpt lat="49.43606" lon="1.66362">
        <ele>186</ele>
        <time>2020-07-25T15:22:14 02:00</time>
      </trkpt>
      <trkpt lat="49.43537" lon="1.66351">
        <ele>182</ele>
        <time>2020-07-25T15:22:19 02:00</time>
      </trkpt>
      <trkpt lat="49.43468" lon="1.66369">
        <ele>180</ele>
        <time>2020-07-25T15:22:24 02:00</time>
      </trkpt>
      <trkpt lat="49.43443" lon="1.66389">
        <ele>181</ele>
        <time>2020-07-25T15:22:29 02:00</time>
      </trkpt>
      <trkpt lat="49.43421" lon="1.66378">
        <ele>181</ele>
        <time>2020-07-25T15:22:34 02:00</time>
      </trkpt>
      <trkpt lat="49.43376" lon="1.66286">
        <ele>183</ele>
        <time>2020-07-25T15:22:39 02:00</time>
      </trkpt>
      <trkpt lat="49.43309" lon="1.66157">
        <ele>186</ele>
        <time>2020-07-25T15:22:44 02:00</time>
      </trkpt>
      <trkpt lat="49.4324" lon="1.66007">
        <ele>189</ele>
        <time>2020-07-25T15:22:49 02:00</time>
      </trkpt>
      <trkpt lat="49.43104" lon="1.6581">
        <ele>196</ele>
        <time>2020-07-25T15:22:54 02:00</time>
      </trkpt>
      <trkpt lat="49.43044" lon="1.6585">
        <ele>197</ele>
        <time>2020-07-25T15:22:59 02:00</time>
      </trkpt>
      <trkpt lat="49.42975" lon="1.65844">
        <ele>197</ele>
        <time>2020-07-25T15:23:04 02:00</time>
      </trkpt>
      <trkpt lat="49.42888" lon="1.65707">
        <ele>194</ele>
        <time>2020-07-25T15:23:09 02:00</time>
      </trkpt>
      <trkpt lat="49.42513" lon="1.65716">
        <ele>195</ele>
        <time>2020-07-25T15:23:14 02:00</time>
      </trkpt>
      <trkpt lat="49.42333" lon="1.65455">
        <ele>196</ele>
        <time>2020-07-25T15:23:19 02:00</time>
      </trkpt>
      <trkpt lat="49.42176" lon="1.65235">
        <ele>190</ele>
        <time>2020-07-25T15:23:24 02:00</time>
      </trkpt>
      <trkpt lat="49.41964" lon="1.64908">
        <ele>191</ele>
        <time>2020-07-25T15:23:29 02:00</time>
      </trkpt>
      <trkpt lat="49.418" lon="1.64801">
        <ele>198</ele>
        <time>2020-07-25T15:23:34 02:00</time>
      </trkpt>
      <trkpt lat="49.41426" lon="1.64582">
        <ele>177</ele>
        <time>2020-07-25T15:23:39 02:00</time>
      </trkpt>
      <trkpt lat="49.41269" lon="1.64771">
        <ele>181</ele>
        <time>2020-07-25T15:23:44 02:00</time>
      </trkpt>
      <trkpt lat="49.41124" lon="1.64887">
        <ele>180</ele>
        <time>2020-07-25T15:23:49 02:00</time>
      </trkpt>
      <trkpt lat="49.40811" lon="1.64767">
        <ele>173</ele>
        <time>2020-07-25T15:23:54 02:00</time>
      </trkpt>
      <trkpt lat="49.40387" lon="1.6466">
        <ele>137</ele>
        <time>2020-07-25T15:23:59 02:00</time>
      </trkpt>
      <trkpt lat="49.40317" lon="1.6481">
        <ele>132</ele>
        <time>2020-07-25T15:24:04 02:00</time>
      </trkpt>
      <trkpt lat="49.403" lon="1.65119">
        <ele>118</ele>
        <time>2020-07-25T15:24:09 02:00</time>
      </trkpt>
      <trkpt lat="49.40228" lon="1.65144">
        <ele>118</ele>
        <time>2020-07-25T15:24:14 02:00</time>
      </trkpt>
      <trkpt lat="49.40144" lon="1.65139">
        <ele>116</ele>
        <time>2020-07-25T15:24:19 02:00</time>
      </trkpt>
      <trkpt lat="49.40115" lon="1.65142">
        <ele>115</ele>
        <time>2020-07-25T15:24:24 02:00</time>
      </trkpt>
      <trkpt lat="49.40103" lon="1.65185">
        <ele>118</ele>
        <time>2020-07-25T15:24:29 02:00</time>
      </trkpt>
      <trkpt lat="49.40098" lon="1.65224">
        <ele>121</ele>
        <time>2020-07-25T15:24:34 02:00</time>
      </trkpt>
      <trkpt lat="49.40111" lon="1.65258">
        <ele>125</ele>
        <time>2020-07-25T15:24:39 02:00</time>
      </trkpt>
      <trkpt lat="49.40087" lon="1.65318">
        <ele>127</ele>
        <time>2020-07-25T15:24:44 02:00</time>
      </trkpt>
      <trkpt lat="49.40113" lon="1.65356">
        <ele>130</ele>
        <time>2020-07-25T15:24:49 02:00</time>
      </trkpt>
      <trkpt lat="49.40087" lon="1.65363">
        <ele>129</ele>
        <time>2020-07-25T15:24:54 02:00</time>
      </trkpt>
      <trkpt lat="49.40072" lon="1.65395">
        <ele>129</ele>
        <time>2020-07-25T15:24:59 02:00</time>
      </trkpt>
      <trkpt lat="49.4009" lon="1.65461">
        <ele>136</ele>
        <time>2020-07-25T15:25:04 02:00</time>
      </trkpt>
      <trkpt lat="49.40082" lon="1.65485">
        <ele>138</ele>
        <time>2020-07-25T15:25:09 02:00</time>
      </trkpt>
      <trkpt lat="49.40059" lon="1.65496">
        <ele>136</ele>
        <time>2020-07-25T15:25:14 02:00</time>
      </trkpt>
      <trkpt lat="49.40027" lon="1.65535">
        <ele>135</ele>
        <time>2020-07-25T15:25:19 02:00</time>
      </trkpt>
      <trkpt lat="49.39954" lon="1.65664">
        <ele>137</ele>
        <time>2020-07-25T15:25:24 02:00</time>
      </trkpt>
      <trkpt lat="49.39953" lon="1.65976">
        <ele>140</ele>
        <time>2020-07-25T15:25:29 02:00</time>
      </trkpt>
      <trkpt lat="49.40014" lon="1.66056">
        <ele>148</ele>
        <time>2020-07-25T15:25:34 02:00</time>
      </trkpt>
      <trkpt lat="49.40081" lon="1.6617">
        <ele>154</ele>
        <time>2020-07-25T15:25:39 02:00</time>
      </trkpt>
      <trkpt lat="49.40152" lon="1.66245">
        <ele>147</ele>
        <time>2020-07-25T15:25:44 02:00</time>
      </trkpt>
      <trkpt lat="49.4031" lon="1.66404">
        <ele>144</ele>
        <time>2020-07-25T15:25:49 02:00</time>
      </trkpt>
      <trkpt lat="49.40376" lon="1.66531">
        <ele>141</ele>
        <time>2020-07-25T15:25:54 02:00</time>
      </trkpt>
      <trkpt lat="49.40468" lon="1.66612">
        <ele>144</ele>
        <time>2020-07-25T15:25:59 02:00</time>
      </trkpt>
      <trkpt lat="49.40609" lon="1.66685">
        <ele>147</ele>
        <time>2020-07-25T15:26:04 02:00</time>
      </trkpt>
      <trkpt lat="49.40725" lon="1.66795">
        <ele>148</ele>
        <time>2020-07-25T15:26:09 02:00</time>
      </trkpt>
      <trkpt lat="49.40751" lon="1.66889">
        <ele>146</ele>
        <time>2020-07-25T15:26:14 02:00</time>
      </trkpt>
      <trkpt lat="49.40764" lon="1.66986">
        <ele>145</ele>
        <time>2020-07-25T15:26:19 02:00</time>
      </trkpt>
      <trkpt lat="49.40723" lon="1.67009">
        <ele>146</ele>
        <time>2020-07-25T15:26:24 02:00</time>
      </trkpt>
      <trkpt lat="49.40667" lon="1.67022">
        <ele>149</ele>
        <time>2020-07-25T15:26:29 02:00</time>
      </trkpt>
      <trkpt lat="49.40602" lon="1.67286">
        <ele>154</ele>
        <time>2020-07-25T15:26:34 02:00</time>
      </trkpt>
      <trkpt lat="49.4094" lon="1.67466">
        <ele>169</ele>
        <time>2020-07-25T15:26:39 02:00</time>
      </trkpt>
      <trkpt lat="49.40878" lon="1.67715">
        <ele>173</ele>
        <time>2020-07-25T15:26:44 02:00</time>
      </trkpt>
      <trkpt lat="49.40809" lon="1.67998">
        <ele>176</ele>
        <time>2020-07-25T15:26:49 02:00</time>
      </trkpt>
      <trkpt lat="49.40767" lon="1.67951">
        <ele>171</ele>
        <time>2020-07-25T15:26:54 02:00</time>
      </trkpt>
      <trkpt lat="49.408" lon="1.68011">
        <ele>175</ele>
        <time>2020-07-25T15:26:59 02:00</time>
      </trkpt>
      <trkpt lat="49.40862" lon="1.67822">
        <ele>174</ele>
        <time>2020-07-25T15:27:04 02:00</time>
      </trkpt>
      <trkpt lat="49.41399" lon="1.67521">
        <ele>171</ele>
        <time>2020-07-25T15:27:09 02:00</time>
      </trkpt>
      <trkpt lat="49.41676" lon="1.68109">
        <ele>188</ele>
        <time>2020-07-25T15:27:14 02:00</time>
      </trkpt>
      <trkpt lat="49.41696" lon="1.68249">
        <ele>191</ele>
        <time>2020-07-25T15:27:19 02:00</time>
      </trkpt>
      <trkpt lat="49.41697" lon="1.68423">
        <ele>189</ele>
        <time>2020-07-25T15:27:24 02:00</time>
      </trkpt>
      <trkpt lat="49.41741" lon="1.68831">
        <ele>183</ele>
        <time>2020-07-25T15:27:29 02:00</time>
      </trkpt>
      <trkpt lat="49.4183" lon="1.68859">
        <ele>181</ele>
        <time>2020-07-25T15:27:34 02:00</time>
      </trkpt>
      <trkpt lat="49.41939" lon="1.68872">
        <ele>181</ele>
        <time>2020-07-25T15:27:39 02:00</time>
      </trkpt>
      <trkpt lat="49.42071" lon="1.68847">
        <ele>176</ele>
        <time>2020-07-25T15:27:44 02:00</time>
      </trkpt>
      <trkpt lat="49.42153" lon="1.68793">
        <ele>175</ele>
        <time>2020-07-25T15:27:49 02:00</time>
      </trkpt>
      <trkpt lat="49.42195" lon="1.68778">
        <ele>176</ele>
        <time>2020-07-25T15:27:54 02:00</time>
      </trkpt>
      <trkpt lat="49.42292" lon="1.68749">
        <ele>180</ele>
        <time>2020-07-25T15:27:59 02:00</time>
      </trkpt>
      <trkpt lat="49.4223" lon="1.69076">
        <ele>171</ele>
        <time>2020-07-25T15:28:04 02:00</time>
      </trkpt>
      <trkpt lat="49.42244" lon="1.69466">
        <ele>141</ele>
        <time>2020-07-25T15:28:09 02:00</time>
      </trkpt>
      <trkpt lat="49.42277" lon="1.69783">
        <ele>124</ele>
        <time>2020-07-25T15:28:14 02:00</time>
      </trkpt>
      <trkpt lat="49.42302" lon="1.70049">
        <ele>113</ele>
        <time>2020-07-25T15:28:19 02:00</time>
      </trkpt>
      <trkpt lat="49.42293" lon="1.70156">
        <ele>110</ele>
        <time>2020-07-25T15:28:24 02:00</time>
      </trkpt>
      <trkpt lat="49.42291" lon="1.7035">
        <ele>105</ele>
        <time>2020-07-25T15:28:29 02:00</time>
      </trkpt>
      <trkpt lat="49.42319" lon="1.70513">
        <ele>104</ele>
        <time>2020-07-25T15:28:34 02:00</time>
      </trkpt>
      <trkpt lat="49.42362" lon="1.70433">
        <ele>107</ele>
        <time>2020-07-25T15:28:39 02:00</time>
      </trkpt>
      <trkpt lat="49.42423" lon="1.70196">
        <ele>105</ele>
        <time>2020-07-25T15:28:44 02:00</time>
      </trkpt>
      <trkpt lat="49.42494" lon="1.69986">
        <ele>108</ele>
        <time>2020-07-25T15:28:49 02:00</time>
      </trkpt>
      <trkpt lat="49.42596" lon="1.69715">
        <ele>112</ele>
        <time>2020-07-25T15:28:54 02:00</time>
      </trkpt>
      <trkpt lat="49.4265" lon="1.69436">
        <ele>115</ele>
        <time>2020-07-25T15:28:59 02:00</time>
      </trkpt>
      <trkpt lat="49.42722" lon="1.69201">
        <ele>119</ele>
        <time>2020-07-25T15:29:04 02:00</time>
      </trkpt>
      <trkpt lat="49.42738" lon="1.69013">
        <ele>119</ele>
        <time>2020-07-25T15:29:09 02:00</time>
      </trkpt>
      <trkpt lat="49.42808" lon="1.68802">
        <ele>128</ele>
        <time>2020-07-25T15:29:14 02:00</time>
      </trkpt>
      <trkpt lat="49.42827" lon="1.68675">
        <ele>127</ele>
        <time>2020-07-25T15:29:19 02:00</time>
      </trkpt>
      <trkpt lat="49.42808" lon="1.68673">
        <ele>125</ele>
        <time>2020-07-25T15:29:24 02:00</time>
      </trkpt>
      <trkpt lat="49.42825" lon="1.68433">
        <ele>137</ele>
        <time>2020-07-25T15:29:29 02:00</time>
      </trkpt>
      <trkpt lat="49.42843" lon="1.68361">
        <ele>136</ele>
        <time>2020-07-25T15:29:34 02:00</time>
      </trkpt>
      <trkpt lat="49.42884" lon="1.6827">
        <ele>141</ele>
        <time>2020-07-25T15:29:39 02:00</time>
      </trkpt>
      <trkpt lat="49.42922" lon="1.68182">
        <ele>143</ele>
        <time>2020-07-25T15:29:44 02:00</time>
      </trkpt>
      <trkpt lat="49.4298" lon="1.68107">
        <ele>147</ele>
        <time>2020-07-25T15:29:49 02:00</time>
      </trkpt>
      <trkpt lat="49.431" lon="1.6797">
        <ele>147</ele>
        <time>2020-07-25T15:29:54 02:00</time>
      </trkpt>
      <trkpt lat="49.43128" lon="1.67952">
        <ele>148</ele>
        <time>2020-07-25T15:29:59 02:00</time>
      </trkpt>
      <trkpt lat="49.43179" lon="1.67861">
        <ele>150</ele>
        <time>2020-07-25T15:30:04 02:00</time>
      </trkpt>
      <trkpt lat="49.43232" lon="1.67698">
        <ele>153</ele>
        <time>2020-07-25T15:30:09 02:00</time>
      </trkpt>
      <trkpt lat="49.43318" lon="1.67518">
        <ele>147</ele>
        <time>2020-07-25T15:30:14 02:00</time>
      </trkpt>
      <trkpt lat="49.43305" lon="1.67461">
        <ele>147</ele>
        <time>2020-07-25T15:30:19 02:00</time>
      </trkpt>
      <trkpt lat="49.43305" lon="1.67417">
        <ele>148</ele>
        <time>2020-07-25T15:30:24 02:00</time>
      </trkpt>
      <trkpt lat="49.43355" lon="1.6737">
        <ele>150</ele>
        <time>2020-07-25T15:30:29 02:00</time>
      </trkpt>
      <trkpt lat="49.43392" lon="1.67317">
        <ele>152</ele>
        <time>2020-07-25T15:30:34 02:00</time>
      </trkpt>
      <trkpt lat="49.43436" lon="1.67282">
        <ele>154</ele>
        <time>2020-07-25T15:30:39 02:00</time>
      </trkpt>
      <trkpt lat="49.43468" lon="1.67233">
        <ele>156</ele>
        <time>2020-07-25T15:30:44 02:00</time>
      </trkpt>
      <trkpt lat="49.43519" lon="1.67146">
        <ele>153</ele>
        <time>2020-07-25T15:30:49 02:00</time>
      </trkpt>
      <trkpt lat="49.43587" lon="1.67075">
        <ele>158</ele>
        <time>2020-07-25T15:30:54 02:00</time>
      </trkpt>
      <trkpt lat="49.43734" lon="1.66933">
        <ele>174</ele>
        <time>2020-07-25T15:30:59 02:00</time>
      </trkpt>
      <trkpt lat="49.43812" lon="1.6681">
        <ele>188</ele>
        <time>2020-07-25T15:31:04 02:00</time>
      </trkpt>
      <trkpt lat="49.43847" lon="1.66772">
        <ele>191</ele>
        <time>2020-07-25T15:31:09 02:00</time>
      </trkpt>
      <trkpt lat="49.43838" lon="1.66705">
        <ele>194</ele>
        <time>2020-07-25T15:31:14 02:00</time>
      </trkpt>
      <trkpt lat="49.43829" lon="1.6665">
        <ele>195</ele>
        <time>2020-07-25T15:31:19 02:00</time>
      </trkpt>
      <trkpt lat="49.43842" lon="1.66642">
        <ele>195</ele>
        <time>2020-07-25T15:31:24 02:00</time>
      </trkpt>
    </trkseg>
  </trk>
</gpx>